Time;durP1;ratioP1;P1;durP2;ratioP2;P2;SDS_P1;SDS_P2;PMS_P1;PMS_P2;Temp;Humidity;BMP_temperature;BMP_pressure;BME280_temperature;BME280_humidity;BME280_pressure;Samples;Min_cycle;Max_cycle;Signal;HPM_P1;HPM_P2
2023/03/03 00:01:27;;;;;;;79.37;46.70;;;6.80;99.90;;;;;;5046572;28;20194;-66
2023/03/03 00:03:53;;;;;;;67.67;42.53;;;6.80;99.90;;;;;;5045713;28;20246;-66
2023/03/03 00:06:19;;;;;;;79.70;45.43;;;6.70;99.90;;;;;;5047029;28;20260;-67
2023/03/03 00:08:45;;;;;;;68.67;42.50;;;6.70;99.90;;;;;;5046911;28;20536;-66
2023/03/03 00:11:11;;;;;;;61.93;42.13;;;6.70;99.90;;;;;;5046833;28;20754;-66
2023/03/03 00:13:51;;;;;;;64.97;41.03;;;6.80;99.90;;;;;;5044346;28;20183;-67
2023/03/03 00:16:35;;;;;;;71.27;39.47;;;6.70;99.90;;;;;;5045951;28;20211;-66
2023/03/03 00:19:01;;;;;;;60.23;37.70;;;6.70;99.90;;;;;;5047685;28;20430;-66
2023/03/03 00:21:32;;;;;;;54.93;35.93;;;6.60;99.90;;;;;;5046776;28;20851;-66
2023/03/03 00:24:12;;;;;;;57.30;35.30;;;6.60;99.90;;;;;;5047849;28;20183;-66
2023/03/03 00:26:40;;;;;;;64.40;36.77;;;6.50;99.90;;;;;;5049858;28;20464;-67
2023/03/03 00:29:27;;;;;;;55.10;34.93;;;6.50;99.90;;;;;;5044221;28;20437;-67
2023/03/03 00:31:53;;;;;;;58.73;37.13;;;6.50;99.90;;;;;;5046626;28;20843;-67
2023/03/03 00:34:25;;;;;;;58.23;36.63;;;6.40;99.90;;;;;;5045240;28;20496;-67
2023/03/03 00:36:55;;;;;;;64.37;36.70;;;6.40;99.90;;;;;;5047768;28;20559;-67
2023/03/03 00:39:34;;;;;;;58.03;36.40;;;6.50;99.90;;;;;;5045478;28;20472;-67
2023/03/03 00:42:03;;;;;;;61.90;37.13;;;6.40;99.90;;;;;;5043760;28;20681;-66
2023/03/03 00:44:57;;;;;;;58.30;35.33;;;6.40;99.90;;;;;;5045393;28;21097;-66
2023/03/03 00:47:30;;;;;;;57.43;36.83;;;6.40;99.90;;;;;;5035895;28;20915;-66
2023/03/03 00:50:04;;;;;;;55.60;33.20;;;6.40;99.90;;;;;;5043931;28;20446;-66
2023/03/03 00:52:34;;;;;;;53.87;36.33;;;6.40;99.90;;;;;;5049372;28;20835;-66
2023/03/03 00:55:00;;;;;;;54.67;35.63;;;6.40;99.90;;;;;;5045494;28;20480;-66
2023/03/03 00:57:25;;;;;;;51.33;35.27;;;6.40;99.90;;;;;;5045566;28;20481;-66
2023/03/03 00:59:51;;;;;;;56.53;35.73;;;6.40;99.90;;;;;;5051389;28;20300;-67
2023/03/03 01:02:17;;;;;;;52.40;35.33;;;6.50;99.90;;;;;;5046501;28;20210;-66
2023/03/03 01:04:48;;;;;;;59.33;35.20;;;6.40;99.90;;;;;;5045850;28;20175;-67
2023/03/03 01:07:14;;;;;;;47.40;31.97;;;6.40;99.90;;;;;;5050122;28;20191;-67
2023/03/03 01:09:39;;;;;;;50.93;33.67;;;6.40;99.90;;;;;;5045918;28;20491;-67
2023/03/03 01:12:05;;;;;;;51.60;34.17;;;6.40;99.90;;;;;;5047507;28;20433;-67
2023/03/03 01:14:31;;;;;;;45.40;30.00;;;6.30;99.90;;;;;;5047374;28;20187;-67
2023/03/03 01:16:58;;;;;;;54.67;32.07;;;6.40;99.90;;;;;;5043499;28;20578;-67
2023/03/03 01:19:23;;;;;;;48.73;31.43;;;6.40;99.90;;;;;;5047125;28;20433;-67
2023/03/03 01:21:49;;;;;;;48.90;31.73;;;6.30;99.90;;;;;;5048307;28;21262;-67
2023/03/03 01:24:15;;;;;;;49.17;31.70;;;6.30;99.90;;;;;;5043491;28;20183;-67
2023/03/03 01:26:40;;;;;;;51.27;33.17;;;6.30;99.90;;;;;;5045952;28;20229;-67
2023/03/03 01:29:06;;;;;;;52.47;33.10;;;6.30;99.90;;;;;;5045482;28;20184;-67
2023/03/03 01:31:31;;;;;;;47.90;31.23;;;6.30;99.90;;;;;;5044244;28;20176;-67
2023/03/03 01:33:57;;;;;;;53.20;33.20;;;6.20;99.90;;;;;;5048269;28;20546;-67
2023/03/03 01:36:28;;;;;;;58.10;35.27;;;6.20;99.90;;;;;;5046388;28;20254;-67
2023/03/03 01:38:53;;;;;;;60.57;37.10;;;6.20;99.90;;;;;;5041634;28;20195;-67
2023/03/03 01:41:19;;;;;;;59.03;34.63;;;6.20;99.90;;;;;;5046775;28;20959;-66
2023/03/03 01:43:48;;;;;;;60.33;38.40;;;6.20;99.90;;;;;;5041715;28;20440;-66
2023/03/03 01:46:23;;;;;;;59.47;38.77;;;6.10;99.90;;;;;;5044044;28;20486;-67
2023/03/03 01:48:50;;;;;;;73.23;40.03;;;6.00;99.90;;;;;;5043778;28;20445;-67
2023/03/03 01:51:27;;;;;;;62.33;36.90;;;6.00;99.90;;;;;;5045747;28;20456;-67
2023/03/03 01:53:58;;;;;;;57.10;34.90;;;5.90;99.90;;;;;;5040950;28;20476;-67
2023/03/03 01:56:25;;;;;;;64.90;35.37;;;6.00;99.90;;;;;;5043302;28;21104;-67
2023/03/03 01:59:13;;;;;;;59.47;34.37;;;5.90;99.90;;;;;;5042735;28;20521;-67
2023/03/03 02:01:40;;;;;;;56.43;33.03;;;6.00;99.90;;;;;;5040555;28;21016;-67
2023/03/03 02:04:06;;;;;;;52.60;33.97;;;5.90;99.90;;;;;;5040103;28;20437;-67
2023/03/03 02:06:37;;;;;;;54.63;31.20;;;5.90;99.90;;;;;;5045933;28;20454;-67
2023/03/03 02:09:17;;;;;;;49.23;31.67;;;6.00;99.90;;;;;;5039849;28;20283;-66
2023/03/03 02:11:44;;;;;;;44.77;31.10;;;5.90;99.90;;;;;;5048337;28;20448;-66
2023/03/03 02:14:11;;;;;;;54.57;31.10;;;5.90;99.90;;;;;;5046885;28;20605;-66
2023/03/03 02:16:37;;;;;;;48.97;29.50;;;5.70;99.90;;;;;;5044259;28;20517;-67
2023/03/03 02:19:07;;;;;;;43.77;28.73;;;5.70;99.90;;;;;;5051234;28;20517;-66
2023/03/03 02:21:32;;;;;;;49.33;29.80;;;5.70;99.90;;;;;;5050163;28;20513;-66
2023/03/03 02:24:12;;;;;;;44.63;30.37;;;5.60;99.90;;;;;;5047082;28;20547;-67
2023/03/03 02:26:40;;;;;;;47.67;29.70;;;5.70;99.90;;;;;;5046064;28;20203;-67
2023/03/03 02:29:08;;;;;;;41.90;28.67;;;5.70;99.90;;;;;;5052393;28;20509;-66
2023/03/03 02:31:33;;;;;;;46.70;30.53;;;5.80;99.90;;;;;;5047088;28;20442;-67
2023/03/03 02:33:59;;;;;;;44.27;28.10;;;5.80;99.90;;;;;;5049932;28;20452;-67
2023/03/03 02:36:31;;;;;;;43.30;26.67;;;5.80;99.90;;;;;;5046519;28;20235;-66
2023/03/03 02:39:17;;;;;;;48.07;28.60;;;5.80;99.90;;;;;;5047494;28;20847;-66
2023/03/03 02:42:11;;;;;;;41.50;24.83;;;5.80;99.90;;;;;;5048843;28;20441;-67
2023/03/03 02:44:37;;;;;;;46.10;26.60;;;5.90;99.90;;;;;;5044290;28;20880;-67
2023/03/03 02:47:03;;;;;;;41.00;24.97;;;5.90;99.90;;;;;;5048702;28;21054;-67
2023/03/03 02:49:31;;;;;;;40.47;25.47;;;5.90;99.90;;;;;;5041786;28;20433;-67
2023/03/03 02:51:58;;;;;;;42.80;24.60;;;5.90;99.90;;;;;;5048665;28;21331;-67
2023/03/03 02:54:26;;;;;;;36.13;22.00;;;5.90;99.90;;;;;;5049965;28;20502;-67
2023/03/03 02:56:51;;;;;;;37.63;24.23;;;6.00;99.90;;;;;;5047595;28;21305;-67
2023/03/03 02:59:18;;;;;;;41.03;24.17;;;5.90;99.90;;;;;;5041996;28;20427;-68
2023/03/03 03:01:45;;;;;;;33.70;23.00;;;5.90;99.90;;;;;;5037732;28;20897;-67
2023/03/03 03:04:15;;;;;;;40.57;22.77;;;5.90;99.90;;;;;;5047490;28;20886;-67
2023/03/03 03:06:42;;;;;;;40.60;23.47;;;6.00;99.90;;;;;;5041953;28;20493;-67
2023/03/03 03:09:09;;;;;;;54.03;21.60;;;6.00;99.90;;;;;;5048761;28;20556;-67
2023/03/03 03:11:35;;;;;;;28.77;18.87;;;6.00;99.90;;;;;;5044780;28;20890;-67
2023/03/03 03:14:02;;;;;;;29.43;18.20;;;6.00;99.90;;;;;;5045491;28;20527;-67
2023/03/03 03:16:28;;;;;;;28.07;17.37;;;6.00;99.90;;;;;;5045308;28;20474;-67
2023/03/03 03:18:54;;;;;;;26.10;16.70;;;6.00;99.90;;;;;;5047290;28;20426;-66
2023/03/03 03:21:20;;;;;;;24.30;16.60;;;6.00;99.90;;;;;;5047719;28;20548;-67
2023/03/03 03:23:46;;;;;;;25.13;16.53;;;6.00;99.90;;;;;;5042165;28;20430;-67
2023/03/03 03:26:11;;;;;;;23.80;16.83;;;6.00;99.90;;;;;;5045616;28;20840;-67
2023/03/03 03:28:37;;;;;;;25.87;16.07;;;6.10;99.90;;;;;;5047916;28;20812;-66
2023/03/03 03:31:04;;;;;;;23.10;15.47;;;6.10;99.90;;;;;;5037560;28;20186;-67
2023/03/03 03:33:30;;;;;;;26.97;16.80;;;6.10;99.90;;;;;;5037645;28;20345;-66
2023/03/03 03:35:56;;;;;;;24.10;15.53;;;6.00;99.90;;;;;;5043655;28;20466;-67
2023/03/03 03:38:25;;;;;;;23.43;15.57;;;6.10;99.60;;;;;;5036743;28;20198;-66
2023/03/03 03:40:51;;;;;;;27.67;16.67;;;6.10;99.70;;;;;;5062389;28;20444;-66
2023/03/03 03:43:17;;;;;;;24.17;15.30;;;6.10;99.50;;;;;;5049789;28;20962;-66
2023/03/03 03:45:43;;;;;;;24.77;16.63;;;6.10;99.30;;;;;;5041730;28;20198;-66
2023/03/03 03:48:09;;;;;;;27.40;18.23;;;6.10;99.30;;;;;;5041988;28;20199;-66
2023/03/03 03:50:35;;;;;;;26.43;18.77;;;6.10;99.10;;;;;;5045696;28;20433;-66
2023/03/03 03:53:01;;;;;;;24.97;16.80;;;6.10;99.10;;;;;;5050386;28;20206;-66
2023/03/03 03:55:27;;;;;;;28.93;18.33;;;6.10;99.10;;;;;;5045748;28;20486;-66
2023/03/03 03:57:55;;;;;;;24.70;16.83;;;6.00;99.00;;;;;;5045359;28;20477;-66
2023/03/03 04:00:21;;;;;;;28.50;18.20;;;6.00;98.90;;;;;;5050699;28;20483;-66
2023/03/03 04:02:46;;;;;;;25.93;17.33;;;6.00;99.00;;;;;;5044994;28;20445;-66
2023/03/03 04:05:12;;;;;;;29.33;17.23;;;6.00;99.00;;;;;;5043150;28;20449;-66
2023/03/03 04:07:37;;;;;;;30.57;19.27;;;6.00;99.00;;;;;;5043461;28;20631;-66
2023/03/03 04:10:04;;;;;;;37.27;23.57;;;6.00;99.20;;;;;;5046904;28;20183;-67
2023/03/03 04:12:34;;;;;;;45.33;23.93;;;5.90;99.60;;;;;;5044182;28;20186;-66
2023/03/03 04:15:00;;;;;;;36.37;23.80;;;5.90;99.90;;;;;;5031395;28;20430;-67
2023/03/03 04:17:25;;;;;;;35.17;22.27;;;5.80;99.90;;;;;;5043175;28;20785;-66
2023/03/03 04:19:54;;;;;;;38.70;24.70;;;5.80;99.90;;;;;;5045025;28;20677;-66
2023/03/03 04:22:20;;;;;;;35.87;23.20;;;5.80;99.90;;;;;;5043382;28;20815;-66
2023/03/03 04:24:47;;;;;;;37.10;22.43;;;5.80;99.90;;;;;;5044085;28;20429;-66
2023/03/03 04:27:14;;;;;;;38.40;23.20;;;5.70;99.90;;;;;;5044043;28;20194;-66
2023/03/03 04:29:40;;;;;;;33.97;22.80;;;5.70;99.90;;;;;;5046461;28;20970;-67
2023/03/03 04:32:05;;;;;;;38.47;21.73;;;5.70;99.90;;;;;;5047385;28;20459;-66
2023/03/03 04:34:31;;;;;;;35.57;22.60;;;5.70;99.90;;;;;;5048688;28;20195;-66
2023/03/03 04:36:56;;;;;;;36.20;20.93;;;5.70;99.90;;;;;;5040487;28;20211;-66
2023/03/03 04:39:22;;;;;;;30.73;21.57;;;5.70;99.90;;;;;;5046680;28;20276;-66
2023/03/03 04:41:47;;;;;;;34.60;21.63;;;5.70;99.90;;;;;;5044415;28;20301;-66
2023/03/03 04:44:13;;;;;;;33.97;21.70;;;5.70;99.90;;;;;;5047936;28;20508;-66
2023/03/03 04:46:38;;;;;;;35.27;21.67;;;5.60;99.90;;;;;;5043821;28;20956;-66
2023/03/03 04:49:06;;;;;;;40.80;20.80;;;5.60;99.90;;;;;;5043873;28;21020;-67
2023/03/03 04:51:32;;;;;;;36.17;22.80;;;5.60;99.90;;;;;;5046634;28;20183;-67
2023/03/03 04:53:57;;;;;;;34.73;22.47;;;5.60;99.90;;;;;;5049781;28;20880;-66
2023/03/03 04:56:23;;;;;;;39.90;23.10;;;5.60;99.90;;;;;;5047549;28;20215;-67
2023/03/03 04:58:48;;;;;;;39.57;25.07;;;5.60;99.90;;;;;;5060493;28;20178;-66
2023/03/03 05:01:14;;;;;;;40.67;24.57;;;5.60;99.90;;;;;;5042012;28;22546;-66
2023/03/03 05:03:40;;;;;;;43.57;25.30;;;5.50;99.90;;;;;;5043431;28;20188;-66
2023/03/03 05:06:06;;;;;;;39.00;24.63;;;5.50;99.90;;;;;;5041985;28;20211;-66
2023/03/03 05:08:32;;;;;;;41.17;26.03;;;5.50;99.90;;;;;;5049603;28;20957;-66
2023/03/03 05:10:58;;;;;;;47.00;28.10;;;5.50;99.90;;;;;;5048960;28;20445;-66
2023/03/03 05:13:26;;;;;;;41.20;27.60;;;5.50;99.90;;;;;;5049160;28;20193;-67
2023/03/03 05:15:54;;;;;;;42.83;27.07;;;5.40;99.90;;;;;;5044419;28;21195;-66
2023/03/03 05:18:20;;;;;;;44.57;26.70;;;5.40;99.90;;;;;;5044687;28;20631;-66
2023/03/03 05:20:47;;;;;;;41.10;25.50;;;5.30;99.90;;;;;;5046625;28;20446;-67
2023/03/03 05:23:12;;;;;;;40.87;26.50;;;5.30;99.90;;;;;;5046952;28;20429;-67
2023/03/03 05:25:40;;;;;;;40.17;25.43;;;5.30;99.90;;;;;;5042224;28;20440;-67
2023/03/03 05:28:06;;;;;;;40.00;25.40;;;5.20;99.90;;;;;;5042568;28;20669;-67
2023/03/03 05:30:32;;;;;;;43.20;26.20;;;5.20;99.90;;;;;;5041983;28;20483;-68
2023/03/03 05:32:58;;;;;;;41.33;27.30;;;5.20;99.90;;;;;;5044808;28;20523;-68
2023/03/03 05:35:24;;;;;;;49.80;28.90;;;5.20;99.90;;;;;;5043755;28;20261;-68
2023/03/03 05:37:51;;;;;;;42.30;26.53;;;5.20;99.90;;;;;;5045202;28;20457;-67
2023/03/03 05:40:17;;;;;;;44.67;27.30;;;5.20;99.90;;;;;;5048023;28;20444;-68
2023/03/03 05:42:43;;;;;;;42.37;26.97;;;5.20;99.90;;;;;;5041712;28;20434;-67
2023/03/03 05:45:09;;;;;;;45.07;28.20;;;5.20;99.90;;;;;;5044714;28;20817;-67
2023/03/03 05:47:34;;;;;;;43.97;27.70;;;5.30;99.90;;;;;;5043225;28;20199;-68
2023/03/03 05:50:00;;;;;;;46.10;27.07;;;5.30;99.90;;;;;;5054006;28;20437;-67
2023/03/03 05:52:25;;;;;;;43.03;27.13;;;5.30;99.90;;;;;;5050485;28;20179;-67
2023/03/03 05:54:51;;;;;;;46.80;26.20;;;5.30;99.90;;;;;;5048457;28;20174;-67
2023/03/03 05:57:17;;;;;;;46.10;28.47;;;5.40;99.90;;;;;;5049085;28;20215;-67
2023/03/03 05:59:42;;;;;;;46.33;27.77;;;5.40;99.90;;;;;;5050631;28;20186;-67
2023/03/03 06:02:08;;;;;;;50.83;29.17;;;5.40;99.90;;;;;;5046467;28;20182;-66
2023/03/03 06:04:33;;;;;;;48.80;29.30;;;5.40;99.90;;;;;;5045016;28;20180;-67
2023/03/03 06:06:59;;;;;;;48.07;29.37;;;5.40;99.90;;;;;;5049201;28;20203;-66
2023/03/03 06:09:25;;;;;;;50.83;29.27;;;5.40;99.90;;;;;;5050961;28;20655;-66
2023/03/03 06:11:52;;;;;;;47.03;28.13;;;5.50;99.90;;;;;;5046956;28;20191;-67
2023/03/03 06:14:21;;;;;;;46.50;27.20;;;5.50;99.90;;;;;;5048382;28;20445;-67
2023/03/03 06:16:47;;;;;;;48.60;29.10;;;5.50;99.90;;;;;;5047453;28;21016;-67
2023/03/03 06:19:14;;;;;;;45.70;26.90;;;5.50;99.90;;;;;;5058745;28;20524;-67
2023/03/03 06:21:39;;;;;;;40.47;25.20;;;5.50;99.90;;;;;;5048824;28;20926;-67
2023/03/03 06:24:06;;;;;;;39.77;25.03;;;5.50;99.90;;;;;;5047310;28;20433;-67
2023/03/03 06:26:32;;;;;;;42.47;23.87;;;5.50;99.90;;;;;;5047757;28;20615;-67
2023/03/03 06:28:57;;;;;;;34.87;21.00;;;5.50;99.90;;;;;;5046756;28;20471;-67
2023/03/03 06:31:23;;;;;;;38.27;22.07;;;5.50;99.90;;;;;;5051976;28;20436;-67
2023/03/03 06:33:50;;;;;;;31.63;19.50;;;5.50;99.90;;;;;;5042306;28;20240;-67
2023/03/03 06:36:16;;;;;;;30.50;20.07;;;5.50;99.90;;;;;;5046036;28;20593;-67
2023/03/03 06:38:42;;;;;;;30.30;20.27;;;5.60;99.90;;;;;;5044049;28;20442;-66
2023/03/03 06:41:07;;;;;;;34.87;21.67;;;5.60;99.90;;;;;;5050103;28;20487;-67
2023/03/03 06:43:34;;;;;;;35.23;20.63;;;5.60;99.90;;;;;;5048384;28;20190;-67
2023/03/03 06:46:00;;;;;;;36.77;21.87;;;5.60;99.90;;;;;;5045349;28;20188;-67
2023/03/03 06:48:25;;;;;;;31.23;21.00;;;5.60;99.90;;;;;;5045571;28;20542;-67
2023/03/03 06:50:51;;;;;;;35.47;22.03;;;5.60;99.90;;;;;;5049779;28;20187;-67
2023/03/03 06:53:17;;;;;;;34.90;21.60;;;5.60;99.90;;;;;;5048545;28;20774;-67
2023/03/03 06:55:44;;;;;;;33.20;22.80;;;5.60;99.90;;;;;;5044344;28;20210;-66
2023/03/03 06:58:17;;;;;;;36.10;22.77;;;5.60;99.90;;;;;;5043979;28;20442;-66
2023/03/03 07:00:49;;;;;;;40.03;23.60;;;5.60;99.90;;;;;;5045157;28;20503;-66
2023/03/03 07:03:18;;;;;;;40.57;24.80;;;5.70;99.90;;;;;;5045782;28;20434;-66
2023/03/03 07:05:44;;;;;;;41.33;25.63;;;5.70;99.90;;;;;;5048667;28;20443;-66
2023/03/03 07:08:16;;;;;;;49.27;25.60;;;5.60;99.90;;;;;;5045776;28;20442;-66
2023/03/03 07:10:42;;;;;;;44.40;27.50;;;5.70;99.90;;;;;;5042805;28;20479;-66
2023/03/03 07:13:18;;;;;;;44.43;26.03;;;5.70;99.90;;;;;;5045235;28;20465;-66
2023/03/03 07:15:44;;;;;;;49.03;28.07;;;5.70;99.90;;;;;;5043901;28;20988;-67
2023/03/03 07:18:44;;;;;;;41.13;27.20;;;5.70;99.90;;;;;;5044681;28;21097;-66
2023/03/03 07:21:18;;;;;;;44.70;26.37;;;5.70;99.90;;;;;;5049931;28;22037;-66
2023/03/03 07:23:45;;;;;;;40.63;26.37;;;5.70;99.90;;;;;;5049116;28;20876;-66
2023/03/03 07:26:13;;;;;;;45.80;29.10;;;5.70;99.90;;;;;;5045371;28;20460;-66
2023/03/03 07:28:41;;;;;;;45.97;26.27;;;5.70;99.90;;;;;;5050127;28;20441;-66
2023/03/03 07:31:32;;;;;;;46.13;28.83;;;5.70;99.90;;;;;;5047115;28;20450;-67
2023/03/03 07:33:59;;;;;;;46.30;28.70;;;5.80;99.90;;;;;;5044795;28;21179;-68
2023/03/03 07:36:35;;;;;;;46.97;27.40;;;5.80;99.90;;;;;;5052102;28;20499;-68
2023/03/03 07:39:23;;;;;;;46.10;27.80;;;5.80;99.90;;;;;;5043690;28;20440;-67
2023/03/03 07:41:48;;;;;;;46.17;28.70;;;5.80;99.90;;;;;;5041363;28;20523;-68
2023/03/03 07:44:21;;;;;;;45.90;27.13;;;5.90;99.90;;;;;;5047123;28;20441;-67
2023/03/03 07:46:48;;;;;;;43.97;27.97;;;5.90;99.90;;;;;;5047851;28;20226;-67
2023/03/03 07:49:23;;;;;;;46.10;29.33;;;5.90;99.90;;;;;;5044213;28;20440;-66
2023/03/03 07:51:56;;;;;;;47.00;29.97;;;6.00;99.90;;;;;;5048193;28;20515;-67
2023/03/03 07:54:37;;;;;;;52.13;30.30;;;6.00;99.90;;;;;;5042187;28;20445;-67
2023/03/03 07:57:12;;;;;;;43.13;27.77;;;6.00;99.90;;;;;;5040767;28;20877;-66
2023/03/03 07:59:44;;;;;;;47.53;28.90;;;6.10;99.90;;;;;;5044368;28;20429;-66
2023/03/03 08:02:38;;;;;;;43.47;29.30;;;6.10;99.90;;;;;;5042278;28;20684;-66
2023/03/03 08:05:30;;;;;;;52.53;28.13;;;6.10;99.90;;;;;;5040234;28;21021;-66
2023/03/03 08:08:30;;;;;;;42.00;29.87;;;6.20;99.90;;;;;;5035145;28;20455;-66
2023/03/03 08:10:58;;;;;;;50.47;31.07;;;6.20;99.90;;;;;;5041168;28;20455;-66
2023/03/03 08:13:33;;;;;;;46.47;28.47;;;6.20;99.90;;;;;;5045294;28;21473;-66
2023/03/03 08:16:26;;;;;;;53.93;29.73;;;6.20;99.90;;;;;;5029555;28;20464;-67
2023/03/03 08:18:52;;;;;;;42.03;28.13;;;6.20;99.90;;;;;;5040414;28;21118;-66
2023/03/03 08:21:19;;;;;;;49.20;28.80;;;6.30;99.90;;;;;;5045251;28;20517;-66
2023/03/03 08:23:48;;;;;;;51.23;31.50;;;6.30;99.90;;;;;;5040779;28;20926;-67
2023/03/03 08:26:13;;;;;;;51.40;31.23;;;6.30;99.90;;;;;;5036928;28;21240;-68
2023/03/03 08:28:39;;;;;;;56.87;31.23;;;6.30;99.90;;;;;;5041093;28;20498;-66
2023/03/03 08:31:05;;;;;;;46.30;30.23;;;6.30;99.90;;;;;;5044142;28;20179;-67
2023/03/03 08:33:31;;;;;;;44.90;29.07;;;6.40;99.90;;;;;;5043875;28;21243;-67
2023/03/03 08:35:57;;;;;;;51.77;31.67;;;6.30;99.90;;;;;;5039812;28;20219;-66
2023/03/03 08:38:22;;;;;;;48.40;28.20;;;6.40;99.90;;;;;;5043175;28;20471;-65
2023/03/03 08:40:48;;;;;;;66.57;29.30;;;6.40;99.90;;;;;;5043611;28;20175;-66
2023/03/03 08:43:17;;;;;;;45.90;29.53;;;6.50;99.90;;;;;;5039528;28;20183;-66
2023/03/03 08:45:47;;;;;;;45.23;29.53;;;6.50;99.90;;;;;;5041530;28;20437;-66
2023/03/03 08:48:12;;;;;;;46.57;29.00;;;6.60;99.90;;;;;;5041144;28;20433;-65
2023/03/03 08:50:38;;;;;;;43.57;27.20;;;6.60;99.90;;;;;;5044293;28;20445;-63
2023/03/03 08:53:05;;;;;;;43.83;28.30;;;6.60;99.90;;;;;;5040732;28;20269;-65
2023/03/03 08:55:31;;;;;;;41.50;27.70;;;6.60;99.90;;;;;;5045327;28;20448;-64
2023/03/03 08:57:56;;;;;;;39.00;26.30;;;6.60;99.90;;;;;;5039989;28;20445;-63
2023/03/03 09:00:23;;;;;;;38.80;26.13;;;6.60;99.90;;;;;;5048593;28;20190;-66
2023/03/03 09:02:50;;;;;;;46.03;26.40;;;6.60;99.90;;;;;;5040925;28;20245;-64
2023/03/03 09:05:17;;;;;;;42.03;24.67;;;6.60;99.90;;;;;;5052267;28;20964;-64
2023/03/03 09:07:44;;;;;;;41.10;26.13;;;6.70;99.90;;;;;;5042283;28;20474;-65
2023/03/03 09:10:11;;;;;;;40.03;25.30;;;6.70;99.90;;;;;;5048680;28;20476;-65
2023/03/03 09:12:47;;;;;;;47.77;29.10;;;6.80;99.90;;;;;;5042412;28;20469;-66
2023/03/03 09:15:34;;;;;;;41.70;27.10;;;6.80;99.90;;;;;;5043339;28;20425;-66
2023/03/03 09:18:14;;;;;;;42.17;26.50;;;6.90;99.90;;;;;;5039405;28;20507;-66
2023/03/03 09:20:44;;;;;;;45.10;26.13;;;6.90;99.90;;;;;;5042407;28;20444;-65
2023/03/03 09:23:31;;;;;;;39.97;26.87;;;7.00;99.90;;;;;;5043537;28;22229;-66
2023/03/03 09:26:29;;;;;;;41.07;24.47;;;7.10;99.90;;;;;;5049021;28;20433;-66
2023/03/03 09:29:00;;;;;;;44.70;26.27;;;7.10;99.90;;;;;;5044429;28;21405;-68
2023/03/03 09:31:35;;;;;;;49.87;27.30;;;7.10;99.90;;;;;;5044884;28;20469;-64
2023/03/03 09:34:02;;;;;;;42.10;25.00;;;7.20;99.90;;;;;;5035311;28;20469;-65
2023/03/03 09:36:38;;;;;;;40.17;26.03;;;7.20;99.90;;;;;;5044744;28;20498;-64
2023/03/03 09:39:18;;;;;;;41.80;26.20;;;7.30;99.90;;;;;;5038762;28;20579;-64
2023/03/03 09:42:10;;;;;;;38.23;25.03;;;7.30;99.90;;;;;;5042498;28;20444;-65
2023/03/03 09:44:44;;;;;;;39.10;24.80;;;7.40;99.90;;;;;;5045711;28;20426;-65
2023/03/03 09:47:44;;;;;;;41.57;25.47;;;7.40;99.90;;;;;;5042385;28;21658;-62
2023/03/03 09:50:45;;;;;;;39.40;24.90;;;7.40;99.90;;;;;;5041412;28;21171;-64
2023/03/03 09:53:30;;;;;;;41.57;28.03;;;7.40;99.90;;;;;;5039117;28;20534;-65
2023/03/03 09:55:58;;;;;;;37.47;24.87;;;7.50;99.90;;;;;;5043386;28;20469;-65
2023/03/03 09:58:44;;;;;;;37.70;25.63;;;7.50;99.90;;;;;;5047939;28;20437;-65
2023/03/03 10:01:38;;;;;;;39.00;26.10;;;7.60;99.90;;;;;;5043158;28;21782;-64
2023/03/03 10:04:06;;;;;;;40.07;25.13;;;7.70;99.90;;;;;;5041781;28;21551;-65
2023/03/03 10:07:10;;;;;;;42.40;25.17;;;7.70;99.90;;;;;;5042128;28;20500;-65
2023/03/03 10:09:53;;;;;;;44.40;25.10;;;7.70;99.90;;;;;;5043982;28;20535;-64
2023/03/03 10:13:09;;;;;;;39.93;25.20;;;7.80;99.90;;;;;;5041234;28;20441;-64
2023/03/03 10:16:11;;;;;;;41.70;22.93;;;7.90;99.90;;;;;;4984802;28;21249;-66
2023/03/03 10:18:51;;;;;;;41.93;26.23;;;8.00;99.90;;;;;;4983812;28;20440;-67
2023/03/03 10:21:43;;;;;;;47.57;27.37;;;8.10;99.90;;;;;;5031494;28;20884;-65
2023/03/03 10:24:27;;;;;;;35.37;22.33;;;8.10;99.90;;;;;;5042217;28;21074;-66
2023/03/03 10:26:53;;;;;;;36.30;22.90;;;8.20;99.90;;;;;;5046714;28;20475;-66
2023/03/03 10:29:42;;;;;;;33.63;23.60;;;8.30;99.90;;;;;;5044073;28;20446;-66
2023/03/03 10:32:30;;;;;;;38.10;23.60;;;8.30;99.90;;;;;;5044917;28;20188;-66
2023/03/03 10:35:11;;;;;;;33.60;22.87;;;8.40;99.90;;;;;;5044169;28;20425;-67
2023/03/03 10:37:53;;;;;;;38.23;22.93;;;8.50;99.90;;;;;;5044574;28;20481;-67
2023/03/03 10:40:32;;;;;;;33.97;22.80;;;8.60;99.90;;;;;;5043573;28;20429;-66
2023/03/03 10:43:03;;;;;;;37.17;23.37;;;8.60;99.90;;;;;;5046740;28;20433;-66
2023/03/03 10:45:49;;;;;;;38.03;22.90;;;8.70;99.90;;;;;;5042865;28;20465;-67
2023/03/03 10:48:37;;;;;;;36.93;22.33;;;8.70;99.90;;;;;;5045308;28;20429;-67
2023/03/03 10:51:27;;;;;;;42.83;24.53;;;8.80;99.90;;;;;;5044395;28;20433;-66
2023/03/03 10:54:29;;;;;;;34.70;23.90;;;8.90;99.90;;;;;;5046880;28;20903;-67
2023/03/03 10:57:26;;;;;;;38.57;23.10;;;8.90;99.40;;;;;;5036268;28;20903;-68
2023/03/03 11:00:15;;;;;;;33.80;22.30;;;9.00;99.00;;;;;;5046098;28;20516;-67
2023/03/03 11:03:06;;;;;;;36.63;22.77;;;9.10;99.00;;;;;;5045446;28;20442;-66
2023/03/03 11:05:49;;;;;;;27.73;19.40;;;9.10;98.60;;;;;;5049285;28;20499;-66
2023/03/03 11:08:22;;;;;;;32.33;20.20;;;9.20;98.40;;;;;;5045105;28;20444;-68
2023/03/03 11:11:06;;;;;;;28.63;19.40;;;9.20;97.70;;;;;;5047116;28;20437;-67
2023/03/03 11:13:41;;;;;;;33.60;20.00;;;9.30;98.00;;;;;;5048399;28;20439;-67
2023/03/03 11:16:17;;;;;;;33.77;19.73;;;9.30;97.10;;;;;;5041639;28;20598;-66
2023/03/03 11:19:23;;;;;;;30.87;20.73;;;9.40;97.10;;;;;;5046853;28;20457;-67
2023/03/03 11:21:58;;;;;;;36.70;22.13;;;9.50;96.30;;;;;;5046599;28;20443;-66
2023/03/03 11:24:33;;;;;;;33.47;22.07;;;9.60;96.60;;;;;;5046028;28;20973;-66
2023/03/03 11:27:14;;;;;;;34.47;22.93;;;9.60;96.60;;;;;;5044245;28;20464;-65
2023/03/03 11:29:46;;;;;;;34.10;24.10;;;9.70;96.60;;;;;;5048420;28;20564;-65
2023/03/03 11:32:31;;;;;;;37.23;22.37;;;9.70;96.70;;;;;;5045755;28;20441;-65
2023/03/03 11:35:22;;;;;;;32.33;23.83;;;9.80;96.70;;;;;;5047803;28;21049;-65
2023/03/03 11:38:41;;;;;;;38.07;23.80;;;9.80;97.00;;;;;;5044210;28;20501;-65
2023/03/03 11:41:24;;;;;;;37.43;24.80;;;9.80;96.90;;;;;;5044188;28;21057;-65
2023/03/03 11:43:55;;;;;;;37.90;23.37;;;10.00;96.00;;;;;;5047906;28;21001;-66
2023/03/03 11:46:35;;;;;;;36.33;24.17;;;10.00;95.90;;;;;;5051567;28;20478;-65
2023/03/03 11:49:08;;;;;;;32.20;22.27;;;10.00;95.80;;;;;;5045661;28;21115;-65
2023/03/03 11:51:56;;;;;;;35.43;23.00;;;10.00;95.80;;;;;;5049269;28;20445;-65
2023/03/03 11:54:31;;;;;;;43.43;24.10;;;10.10;95.70;;;;;;5046856;28;20445;-65
2023/03/03 11:57:14;;;;;;;38.27;25.57;;;10.20;95.30;;;;;;5045998;28;20596;-65
2023/03/03 11:59:58;;;;;;;36.77;24.03;;;10.20;95.10;;;;;;5047583;28;20444;-66
2023/03/03 12:02:50;;;;;;;31.93;22.03;;;10.20;95.10;;;;;;5045473;28;21113;-65
2023/03/03 12:05:48;;;;;;;38.77;23.50;;;10.30;95.00;;;;;;5043297;28;21350;-65
2023/03/03 12:08:35;;;;;;;35.10;24.97;;;10.40;95.10;;;;;;5003833;28;20877;-65
2023/03/03 12:11:00;;;;;;;35.47;23.60;;;10.50;95.40;;;;;;5047622;28;20432;-64
2023/03/03 12:13:47;;;;;;;30.30;21.97;;;11.00;96.20;;;;;;5050222;28;21052;-64
2023/03/03 12:17:00;;;;;;;31.37;24.13;;;12.90;97.10;;;;;;5043981;28;20320;-64
2023/03/03 12:19:59;;;;;;;32.20;24.43;;;14.40;91.80;;;;;;5034649;28;20413;-64
2023/03/03 12:22:48;;;;;;;34.43;25.83;;;16.20;89.70;;;;;;5050955;28;20991;-66
2023/03/03 12:25:19;;;;;;;32.90;23.70;;;17.30;81.50;;;;;;5043868;28;20448;-66
2023/03/03 12:28:14;;;;;;;34.53;24.37;;;18.20;76.50;;;;;;5048233;28;20795;-66
2023/03/03 12:30:55;;;;;;;32.40;25.20;;;19.00;71.20;;;;;;5046146;28;20429;-65
2023/03/03 12:33:35;;;;;;;29.50;22.97;;;19.30;66.70;;;;;;5045086;28;20422;-65
2023/03/03 12:36:38;;;;;;;30.40;24.80;;;20.00;64.20;;;;;;5046859;28;20505;-65
2023/03/03 12:39:04;;;;;;;28.60;24.07;;;20.80;59.80;;;;;;5046668;28;20433;-65
2023/03/03 12:41:58;;;;;;;30.07;24.33;;;21.40;59.00;;;;;;5049168;28;21300;-65
2023/03/03 12:44:36;;;;;;;30.20;25.77;;;22.00;56.50;;;;;;5046075;28;20175;-65
2023/03/03 12:47:11;;;;;;;31.17;26.07;;;22.50;54.90;;;;;;5046678;28;20559;-65
2023/03/03 12:50:00;;;;;;;30.70;26.20;;;22.90;53.20;;;;;;5047419;28;20437;-65
2023/03/03 12:52:32;;;;;;;32.33;25.37;;;23.10;51.40;;;;;;5022246;28;20883;-64
2023/03/03 12:55:21;;;;;;;27.63;24.63;;;23.60;50.90;;;;;;5043971;28;21018;-65
2023/03/03 12:58:05;;;;;;;30.93;25.97;;;24.00;49.80;;;;;;5046837;28;20626;-65
2023/03/03 13:00:50;;;;;;;28.97;25.90;;;24.40;48.70;;;;;;5049685;28;20516;-65
2023/03/03 13:03:22;;;;;;;29.27;26.10;;;24.30;48.20;;;;;;5043802;28;20437;-65
2023/03/03 13:06:12;;;;;;;32.53;28.10;;;24.20;46.60;;;;;;5046103;28;20521;-65